Flight Number: EUR1538 Duration: 1:30
Departure: Liverpool Airport (EGGP) at 18:15 Distance: 272 Nm
Arrival: Barra Airport (EGPR) at 19:45 Equipment: B1900D

Weather Information
Liverpool Airport , United Kingdom (EGGP) 53-20N 002-51W Sep 21, 2017 - 05:20 PM EDT / 2017.09.21 2120 UTC
Wind: from the SSW (210 degrees) at 5 MPH (4 KT):0
Visibility: greater than 7 mile(s):0 Temperature: 50 F (10 C) Dew Point: 46 F (8 C) Relative Humidity: 87% Pressure (altimeter): 30.03 in. Hg (1017 hPa)
ob: EGGP 212120Z 21004KT CAVOK 10/08 Q1017 cycle: 21
Sunrise: 06:00 Sunset: 18:07 (UTC)

404 Not Found

Not Found

The requested URL /data/observations/metar/decoded/EGPR.TXT was not found on this server.


Sunrise: 06:18 Sunset: 18:26 (UTC)

TAF: 404 Not Found

Not Found

The requested URL /data/forecasts/taf/stations/EGPR.TXT was not found on this server.



Previous Pireps for this route
Date Aircraft Flight time Fuel used Landing rate On time
2016-02-26B1900D01.241314-588No
(pireps marked green are flown by you)

Route map